createdAt,value
2017-03-30T00:00:23.579Z,8.99
2017-03-30T00:01:04.018Z,8.97
2017-03-30T00:01:44.563Z,8.99
2017-03-30T00:02:25.016Z,9.04
2017-03-30T00:03:05.500Z,8.95
2017-03-30T00:03:45.991Z,8.89
2017-03-30T00:04:26.483Z,9.02
2017-03-30T00:05:06.971Z,8.89
2017-03-30T00:05:47.502Z,8.89
2017-03-30T00:06:27.946Z,8.94
2017-03-30T00:07:08.433Z,9.02
2017-03-30T00:07:48.933Z,8.91
2017-03-30T00:08:29.404Z,9.03
2017-03-30T00:09:09.869Z,8.89
2017-03-30T00:09:50.354Z,8.92
2017-03-30T00:10:30.881Z,9.02
2017-03-30T00:11:11.353Z,8.99
2017-03-30T00:11:51.823Z,8.92
2017-03-30T00:12:32.267Z,8.95
2017-03-30T00:13:12.790Z,9.02
2017-03-30T00:13:53.292Z,9.03
2017-03-30T00:14:33.828Z,8.92
2017-03-30T00:15:14.289Z,9.02
2017-03-30T00:15:54.790Z,9.02
2017-03-30T00:16:35.271Z,8.99
2017-03-30T00:17:15.796Z,8.99
2017-03-30T00:17:56.259Z,8.95
2017-03-30T00:18:36.741Z,8.97
2017-03-30T00:19:17.239Z,8.99
2017-03-30T00:19:57.711Z,9.03
2017-03-30T00:20:38.186Z,9
2017-03-30T00:21:18.636Z,9.03
2017-03-30T00:21:59.135Z,9.02
2017-03-30T00:22:39.647Z,8.99
2017-03-30T00:23:20.150Z,8.95
2017-03-30T00:24:00.626Z,9.02
2017-03-30T00:24:41.102Z,8.99
2017-03-30T00:25:21.592Z,9
2017-03-30T00:26:02.052Z,9
2017-03-30T00:26:42.541Z,9
2017-03-30T00:27:23.050Z,9.02
2017-03-30T00:28:03.491Z,8.99
2017-03-30T00:28:44.040Z,9.02
2017-03-30T00:29:24.520Z,9.11
2017-03-30T00:30:04.982Z,9.03
2017-03-30T00:30:45.438Z,9.06
2017-03-30T00:31:25.943Z,9.08
2017-03-30T00:32:06.430Z,9.04
2017-03-30T00:32:46.932Z,9.04
2017-03-30T00:33:27.372Z,9.14
2017-03-30T00:34:07.869Z,9.04
2017-03-30T00:34:48.347Z,9.06
2017-03-30T00:35:28.882Z,9.1
2017-03-30T00:36:09.348Z,9.04
2017-03-30T00:36:49.829Z,9.04
2017-03-30T00:37:30.327Z,9.14
2017-03-30T00:38:10.818Z,9.16
2017-03-30T00:38:51.318Z,9.14
2017-03-30T00:39:31.795Z,9.21
2017-03-30T00:40:12.320Z,9.22
2017-03-30T00:40:52.781Z,9.13
2017-03-30T00:41:33.292Z,9.14
2017-03-30T00:42:13.817Z,9.19
2017-03-30T00:42:54.314Z,9.18
2017-03-30T00:43:34.788Z,9.16
2017-03-30T00:44:15.255Z,9.1
2017-03-30T00:44:55.744Z,9.13
2017-03-30T00:45:36.249Z,9.19
2017-03-30T00:46:16.727Z,9.19
2017-03-30T00:46:57.236Z,9.19
2017-03-30T00:47:37.705Z,9.22
2017-03-30T00:48:18.211Z,9.19
2017-03-30T00:48:58.713Z,9.19
2017-03-30T00:49:39.226Z,9.21
2017-03-30T00:50:19.668Z,9.26
2017-03-30T00:51:00.148Z,9.14
2017-03-30T00:51:40.617Z,9.22
2017-03-30T00:52:21.114Z,9.28
2017-03-30T00:53:01.582Z,9.18
2017-03-30T00:53:42.092Z,9.19
2017-03-30T00:54:22.582Z,9.21
2017-03-30T00:55:03.061Z,9.22
2017-03-30T00:55:43.563Z,9.19
2017-03-30T00:56:24.053Z,9.25
2017-03-30T00:57:04.552Z,9.22
2017-03-30T00:57:45.043Z,9.25
2017-03-30T00:58:25.549Z,9.26
2017-03-30T00:59:06.103Z,9.19
2017-03-30T00:59:46.602Z,9.31
2017-03-30T01:00:27.086Z,9.19
2017-03-30T01:01:07.554Z,9.28
2017-03-30T01:01:48.082Z,9.26
2017-03-30T01:02:28.571Z,9.32
2017-03-30T01:03:09.026Z,9.26
2017-03-30T01:05:27.079Z,9.29
2017-03-30T01:06:07.445Z,9.28
2017-03-30T01:06:47.930Z,9.31
2017-03-30T01:07:28.412Z,9.28
2017-03-30T01:08:08.903Z,9.29
2017-03-30T01:08:49.405Z,9.34
2017-03-30T01:09:30.836Z,9.34
2017-03-30T01:10:11.315Z,9.25
2017-03-30T01:10:51.777Z,9.25
2017-03-30T01:11:32.271Z,9.34
2017-03-30T01:12:12.753Z,9.26
2017-03-30T01:12:53.236Z,9.31
2017-03-30T01:13:33.710Z,9.29
2017-03-30T01:14:14.204Z,9.29
2017-03-30T01:14:54.678Z,9.21
2017-03-30T01:15:35.162Z,9.21
2017-03-30T01:16:15.647Z,9.34
2017-03-30T01:16:56.173Z,9.31
2017-03-30T01:17:36.634Z,9.34
2017-03-30T01:18:17.116Z,9.29
2017-03-30T01:18:57.596Z,9.32
2017-03-30T01:19:38.064Z,9.26
2017-03-30T01:20:18.540Z,9.29
2017-03-30T01:20:59.037Z,9.34
2017-03-30T01:21:39.528Z,9.36
2017-03-30T01:22:20.100Z,9.39
2017-03-30T01:23:00.583Z,9.36
2017-03-30T01:23:41.034Z,9.34
2017-03-30T01:24:21.521Z,9.34
2017-03-30T01:25:02.013Z,9.36
2017-03-30T01:25:42.518Z,9.4
2017-03-30T01:26:23.027Z,9.29
2017-03-30T01:27:03.485Z,9.31
2017-03-30T01:27:44.012Z,9.37
2017-03-30T01:28:24.496Z,9.28
2017-03-30T01:29:04.966Z,9.36
2017-03-30T01:29:45.423Z,9.41
2017-03-30T01:30:25.960Z,9.37
2017-03-30T01:31:06.447Z,9.34
2017-03-30T01:31:46.976Z,9.43
2017-03-30T01:32:27.431Z,9.37
2017-03-30T01:33:07.942Z,9.36
2017-03-30T01:33:48.426Z,9.34
2017-03-30T01:34:28.954Z,9.37
2017-03-30T01:35:09.399Z,9.41
2017-03-30T01:35:49.874Z,9.39
2017-03-30T01:36:30.340Z,9.43
2017-03-30T01:37:10.818Z,9.37
2017-03-30T01:37:51.301Z,9.29
2017-03-30T01:38:31.775Z,9.37
2017-03-30T01:39:12.255Z,9.32
2017-03-30T01:39:52.726Z,9.41
2017-03-30T01:40:33.197Z,9.34
2017-03-30T01:41:13.683Z,9.39
2017-03-30T01:41:54.194Z,9.41
2017-03-30T01:42:34.898Z,9.41
2017-03-30T01:43:15.348Z,9.39
2017-03-30T01:43:55.822Z,9.29
2017-03-30T01:44:36.292Z,9.36
2017-03-30T01:45:16.765Z,9.34
2017-03-30T01:45:57.245Z,9.39
2017-03-30T01:46:37.717Z,9.36
2017-03-30T01:47:18.247Z,9.41
2017-03-30T01:47:58.721Z,9.39
2017-03-30T01:48:39.215Z,9.34
2017-03-30T01:49:19.661Z,9.4
2017-03-30T01:50:00.159Z,9.41
2017-03-30T01:50:40.606Z,9.4
2017-03-30T01:51:21.091Z,9.41
2017-03-30T01:52:01.551Z,9.39
2017-03-30T01:52:42.011Z,9.39
2017-03-30T01:53:22.510Z,9.37
2017-03-30T01:54:02.979Z,9.41
2017-03-30T01:54:43.476Z,9.31
2017-03-30T01:55:24.205Z,9.39
2017-03-30T01:56:04.678Z,9.32
2017-03-30T01:56:45.183Z,9.34
2017-03-30T01:57:25.628Z,9.31
2017-03-30T01:58:06.139Z,9.36
2017-03-30T01:58:46.618Z,9.36
2017-03-30T01:59:27.093Z,9.29
2017-03-30T02:00:07.573Z,9.31
2017-03-30T02:00:48.042Z,9.29
2017-03-30T02:01:28.514Z,9.32
2017-03-30T02:02:08.983Z,9.32
2017-03-30T02:02:49.469Z,9.36
2017-03-30T02:03:30.028Z,9.31
2017-03-30T02:04:10.501Z,9.36
2017-03-30T02:04:51.075Z,9.36
2017-03-30T02:05:31.546Z,9.29
2017-03-30T02:06:12.060Z,9.34
2017-03-30T02:06:52.544Z,9.34
2017-03-30T02:07:33.028Z,9.34
2017-03-30T02:08:13.513Z,9.37
2017-03-30T02:08:53.981Z,9.29
2017-03-30T02:09:34.468Z,9.29
2017-03-30T02:10:14.991Z,9.29
2017-03-30T02:10:55.487Z,9.36
2017-03-30T02:11:35.968Z,9.39
2017-03-30T02:12:16.443Z,9.31
2017-03-30T02:12:56.924Z,9.34
2017-03-30T02:13:37.384Z,9.4
2017-03-30T02:14:17.859Z,9.36
2017-03-30T02:14:58.346Z,9.36
2017-03-30T02:15:38.937Z,9.36
2017-03-30T02:16:19.422Z,9.29
2017-03-30T02:16:59.909Z,9.34
2017-03-30T02:17:40.405Z,9.39
2017-03-30T02:19:54.718Z,9.39
2017-03-30T02:20:35.036Z,9.29
2017-03-30T02:21:15.543Z,9.26
2017-03-30T02:21:56.040Z,9.34
2017-03-30T02:22:36.557Z,9.32
2017-03-30T02:23:17.037Z,9.36
2017-03-30T02:23:57.498Z,9.41
2017-03-30T02:24:37.990Z,9.31
2017-03-30T02:25:18.490Z,9.37
2017-03-30T02:25:59.003Z,9.44
2017-03-30T02:26:39.489Z,9.39
2017-03-30T02:27:19.982Z,9.4
2017-03-30T02:28:00.451Z,9.43
2017-03-30T02:28:40.945Z,9.39
2017-03-30T02:29:21.410Z,9.37
2017-03-30T02:30:01.889Z,9.43
2017-03-30T02:30:42.374Z,9.36
2017-03-30T02:31:22.834Z,9.34
2017-03-30T02:32:03.314Z,9.4
2017-03-30T02:32:43.820Z,9.41
2017-03-30T02:33:24.287Z,9.4
2017-03-30T02:34:04.780Z,9.39
2017-03-30T02:34:45.250Z,9.4
2017-03-30T02:35:25.739Z,9.4
2017-03-30T02:36:06.206Z,9.43
2017-03-30T02:36:46.698Z,9.43
2017-03-30T02:37:27.215Z,9.44
2017-03-30T02:38:07.690Z,9.44
2017-03-30T02:38:48.186Z,9.44
2017-03-30T02:39:28.655Z,9.4
2017-03-30T02:40:09.128Z,9.41
2017-03-30T02:40:49.635Z,9.37
2017-03-30T02:41:30.109Z,9.48
2017-03-30T02:42:10.643Z,9.55
2017-03-30T02:42:51.173Z,9.51
2017-03-30T02:43:31.600Z,9.55
2017-03-30T02:44:12.096Z,9.51
2017-03-30T02:44:52.607Z,9.54
2017-03-30T02:45:33.061Z,9.5
2017-03-30T02:46:13.552Z,9.56
2017-03-30T02:46:54.058Z,9.51
2017-03-30T02:47:34.524Z,9.47
2017-03-30T02:48:15.004Z,9.46
2017-03-30T02:48:55.475Z,9.48
2017-03-30T02:49:35.935Z,9.55
2017-03-30T02:50:16.413Z,9.54
2017-03-30T02:50:56.898Z,9.51
2017-03-30T02:51:37.397Z,9.47
2017-03-30T02:52:17.867Z,9.54
2017-03-30T02:52:58.363Z,9.46
2017-03-30T02:53:38.856Z,9.54
2017-03-30T02:54:19.389Z,9.5
2017-03-30T02:54:59.874Z,9.51
2017-03-30T02:55:40.369Z,9.5
2017-03-30T02:56:20.883Z,9.5
2017-03-30T02:57:01.380Z,9.48
2017-03-30T02:57:41.856Z,9.5
2017-03-30T02:58:22.333Z,9.5
2017-03-30T02:59:02.827Z,9.54
2017-03-30T02:59:43.299Z,9.5
2017-03-30T03:00:23.762Z,9.54
2017-03-30T03:01:04.264Z,9.58
2017-03-30T03:01:44.779Z,9.5
2017-03-30T03:02:25.244Z,9.48
2017-03-30T03:03:05.728Z,9.54
2017-03-30T03:03:46.227Z,9.64
2017-03-30T03:04:26.711Z,9.66
2017-03-30T03:05:07.185Z,9.51
2017-03-30T03:05:47.662Z,9.51
2017-03-30T03:06:28.183Z,9.51
2017-03-30T03:07:08.624Z,9.58
2017-03-30T03:07:49.109Z,9.51
2017-03-30T03:08:29.611Z,9.55
2017-03-30T03:09:10.076Z,9.62
2017-03-30T03:09:50.587Z,9.62
2017-03-30T03:10:31.067Z,9.56
2017-03-30T03:11:11.537Z,9.55
2017-03-30T03:11:52.009Z,9.58
2017-03-30T03:12:32.514Z,9.56
2017-03-30T03:13:13.040Z,9.69
2017-03-30T03:13:53.495Z,9.68
2017-03-30T03:14:33.995Z,9.66
2017-03-30T03:15:14.464Z,9.58
2017-03-30T03:15:54.952Z,9.69
2017-03-30T03:16:35.433Z,9.66
2017-03-30T03:17:15.915Z,9.64
2017-03-30T03:17:56.401Z,9.66
2017-03-30T03:18:38.802Z,9.66
2017-03-30T03:19:19.285Z,9.61
2017-03-30T03:19:59.784Z,9.68
2017-03-30T03:20:40.243Z,9.68
2017-03-30T03:21:20.713Z,9.66
2017-03-30T03:22:01.172Z,9.64
2017-03-30T03:22:41.647Z,9.72
2017-03-30T03:23:22.106Z,9.73
2017-03-30T03:24:02.590Z,9.69
2017-03-30T03:24:43.111Z,9.68
2017-03-30T03:25:23.568Z,9.68
2017-03-30T03:26:04.038Z,9.66
2017-03-30T03:26:44.501Z,9.72
2017-03-30T03:27:24.967Z,9.77
2017-03-30T03:28:05.468Z,9.68
2017-03-30T03:28:45.933Z,9.72
2017-03-30T03:29:26.437Z,9.69
2017-03-30T03:30:06.945Z,9.73
2017-03-30T03:30:47.401Z,9.66
2017-03-30T03:31:27.879Z,9.69
2017-03-30T03:32:08.375Z,9.74
2017-03-30T03:32:48.847Z,9.66
2017-03-30T03:33:29.329Z,9.72
2017-03-30T03:34:09.811Z,9.8
2017-03-30T03:34:50.313Z,9.74
2017-03-30T03:35:30.792Z,9.74
2017-03-30T03:36:11.279Z,9.72
2017-03-30T03:36:51.758Z,9.69
2017-03-30T03:37:32.288Z,9.72
2017-03-30T03:38:12.753Z,9.76
2017-03-30T03:38:53.229Z,9.76
2017-03-30T03:39:33.723Z,9.72
2017-03-30T03:40:14.256Z,9.74
2017-03-30T03:40:54.758Z,9.69
2017-03-30T03:41:35.235Z,9.73
2017-03-30T03:42:15.714Z,9.8
2017-03-30T03:42:56.168Z,9.74
2017-03-30T03:43:36.682Z,9.69
2017-03-30T03:44:17.189Z,9.73
2017-03-30T03:44:57.649Z,9.8
2017-03-30T03:45:38.159Z,9.73
2017-03-30T03:46:18.649Z,9.82
2017-03-30T03:46:59.149Z,9.73
2017-03-30T03:47:39.620Z,9.74
2017-03-30T03:48:20.085Z,9.73
2017-03-30T03:49:00.585Z,9.77
2017-03-30T03:49:41.073Z,9.84
2017-03-30T03:50:21.519Z,9.72
2017-03-30T03:51:01.997Z,9.76
2017-03-30T03:51:42.476Z,9.84
2017-03-30T03:52:22.958Z,9.77
2017-03-30T03:53:03.442Z,9.84
2017-03-30T03:53:43.935Z,9.74
2017-03-30T03:54:24.434Z,9.84
2017-03-30T03:55:04.917Z,9.8
2017-03-30T03:55:45.423Z,9.87
2017-03-30T03:56:25.914Z,9.92
2017-03-30T03:57:06.405Z,9.86
2017-03-30T03:57:46.879Z,9.82
2017-03-30T03:58:27.357Z,9.82
2017-03-30T03:59:07.834Z,9.87
2017-03-30T03:59:48.355Z,9.82
2017-03-30T04:00:28.833Z,9.8
2017-03-30T04:01:09.346Z,9.8
2017-03-30T04:01:49.820Z,9.84
2017-03-30T04:02:30.305Z,9.89
2017-03-30T04:03:10.741Z,9.84
2017-03-30T04:03:51.258Z,9.86
2017-03-30T04:04:31.743Z,9.84
2017-03-30T04:05:12.251Z,9.83
2017-03-30T04:05:52.763Z,9.8
2017-03-30T04:06:33.248Z,9.86
2017-03-30T04:07:13.731Z,9.83
2017-03-30T04:07:54.224Z,9.89
2017-03-30T04:08:34.682Z,9.92
2017-03-30T04:09:15.177Z,9.86
2017-03-30T04:09:55.635Z,9.89
2017-03-30T04:10:36.111Z,9.87
2017-03-30T04:11:16.577Z,9.87
2017-03-30T04:11:57.075Z,9.89
2017-03-30T04:12:37.565Z,9.83
2017-03-30T04:13:18.068Z,9.86
2017-03-30T04:13:58.571Z,9.91
2017-03-30T04:14:39.082Z,9.87
2017-03-30T04:15:19.515Z,9.91
2017-03-30T04:15:59.988Z,9.94
2017-03-30T04:16:40.469Z,9.91
2017-03-30T04:17:20.946Z,9.94
2017-03-30T04:18:01.447Z,9.92
2017-03-30T04:18:41.933Z,9.99
2017-03-30T04:19:22.420Z,9.97
2017-03-30T04:20:02.902Z,9.95
2017-03-30T04:20:43.375Z,9.97
2017-03-30T04:21:23.843Z,9.94
2017-03-30T04:23:01.751Z,10.04
2017-03-30T04:23:42.115Z,10.02
2017-03-30T04:24:22.567Z,9.95
2017-03-30T04:25:03.039Z,10.05
2017-03-30T04:25:43.521Z,10.04
2017-03-30T04:26:24.021Z,9.99
2017-03-30T04:27:04.574Z,9.99
2017-03-30T04:27:45.061Z,9.99
2017-03-30T04:28:25.543Z,9.97
2017-03-30T04:29:06.007Z,9.98
2017-03-30T04:29:46.508Z,9.95
2017-03-30T04:30:26.976Z,9.99
2017-03-30T04:31:07.458Z,10.05
2017-03-30T04:31:47.939Z,10.13
2017-03-30T04:32:28.378Z,10.05
2017-03-30T04:33:08.850Z,9.95
2017-03-30T04:33:49.362Z,10.09
2017-03-30T04:34:29.821Z,10.1
2017-03-30T04:35:10.279Z,10.07
2017-03-30T04:35:50.730Z,10.15
2017-03-30T04:36:31.238Z,10.04
2017-03-30T04:37:11.750Z,10.07
2017-03-30T04:37:52.200Z,10.12
2017-03-30T04:38:32.690Z,10.1
2017-03-30T04:39:13.163Z,10.12
2017-03-30T04:39:53.635Z,10.07
2017-03-30T04:40:34.117Z,9.95
2017-03-30T04:41:14.608Z,9.95
2017-03-30T04:41:55.115Z,10.09
2017-03-30T04:42:35.574Z,10.02
2017-03-30T04:43:16.100Z,10.15
2017-03-30T04:43:56.556Z,10.04
2017-03-30T04:44:37.044Z,10.07
2017-03-30T04:45:17.537Z,10.1
2017-03-30T04:45:58.020Z,10.13
2017-03-30T04:46:38.483Z,10.09
2017-03-30T04:47:19.023Z,10.07
2017-03-30T04:47:59.483Z,10.02
2017-03-30T04:48:39.967Z,10.07
2017-03-30T04:49:20.473Z,10.1
2017-03-30T04:50:00.947Z,10.07
2017-03-30T04:50:41.458Z,10.13
2017-03-30T04:51:21.958Z,10.13
2017-03-30T04:52:02.430Z,10.16
2017-03-30T04:52:42.924Z,10.09
2017-03-30T04:53:23.390Z,10.12
2017-03-30T04:54:03.863Z,10.12
2017-03-30T04:54:44.359Z,10.12
2017-03-30T04:55:24.845Z,10.09
2017-03-30T04:56:05.308Z,10.13
2017-03-30T04:56:45.780Z,10.17
2017-03-30T04:57:26.250Z,10.15
2017-03-30T04:58:06.740Z,10.09
2017-03-30T04:58:47.229Z,10.17
2017-03-30T04:59:27.744Z,10.15
2017-03-30T05:00:08.248Z,10.12
2017-03-30T05:00:48.708Z,10.1
2017-03-30T05:01:29.229Z,10.1
2017-03-30T05:02:09.754Z,10.1
2017-03-30T05:02:50.281Z,10.17
2017-03-30T05:03:30.771Z,10.17
2017-03-30T05:04:11.221Z,10.17
2017-03-30T05:04:51.716Z,10.2
2017-03-30T05:05:32.185Z,10.22
2017-03-30T05:06:12.693Z,10.23
2017-03-30T05:06:53.155Z,10.3
2017-03-30T05:07:33.626Z,10.25
2017-03-30T05:08:14.165Z,10.28
2017-03-30T05:08:54.612Z,10.25
2017-03-30T05:09:35.055Z,10.28
2017-03-30T05:10:15.572Z,10.2
2017-03-30T05:10:56.042Z,10.23
2017-03-30T05:11:36.521Z,10.33
2017-03-30T05:12:17.003Z,10.28
2017-03-30T05:13:54.972Z,10.37
2017-03-30T05:14:35.295Z,10.3
2017-03-30T05:15:15.783Z,10.37
2017-03-30T05:15:56.288Z,10.35
2017-03-30T05:16:36.757Z,10.37
2017-03-30T05:17:17.208Z,10.37
2017-03-30T05:17:57.681Z,10.28
2017-03-30T05:18:38.177Z,10.31
2017-03-30T05:19:18.647Z,10.34
2017-03-30T05:19:59.213Z,10.37
2017-03-30T05:20:39.664Z,10.37
2017-03-30T05:21:20.141Z,10.33
2017-03-30T05:22:00.641Z,10.34
2017-03-30T05:22:41.188Z,10.49
2017-03-30T05:23:28.202Z,10.35
2017-03-30T05:24:08.671Z,10.44
2017-03-30T05:24:49.170Z,10.48
2017-03-30T05:25:29.659Z,10.49
2017-03-30T05:26:10.194Z,10.41
2017-03-30T05:26:50.727Z,10.42
2017-03-30T05:27:31.226Z,10.51
2017-03-30T05:28:11.722Z,10.48
2017-03-30T05:28:52.197Z,10.53
2017-03-30T05:29:32.641Z,10.46
2017-03-30T05:30:13.129Z,10.51
2017-03-30T05:30:53.651Z,10.46
2017-03-30T05:31:34.134Z,10.49
2017-03-30T05:32:14.580Z,10.53
2017-03-30T05:32:55.067Z,10.56
2017-03-30T05:33:35.544Z,10.56
2017-03-30T05:34:16.036Z,10.56
2017-03-30T05:34:56.532Z,10.56
2017-03-30T05:35:37.015Z,10.57
2017-03-30T05:36:17.478Z,10.6
2017-03-30T05:36:57.982Z,10.57
2017-03-30T05:37:38.444Z,10.59
2017-03-30T05:38:18.923Z,10.6
2017-03-30T05:38:59.404Z,10.61
2017-03-30T05:39:39.885Z,10.57
2017-03-30T05:40:20.378Z,10.63
2017-03-30T05:41:00.875Z,10.6
2017-03-30T05:41:41.331Z,10.59
2017-03-30T05:42:21.819Z,10.57
2017-03-30T05:43:02.327Z,10.63
2017-03-30T05:43:42.816Z,10.64
2017-03-30T05:44:23.330Z,10.75
2017-03-30T05:45:03.784Z,10.64
2017-03-30T05:45:44.266Z,10.72
2017-03-30T05:46:24.739Z,10.78
2017-03-30T05:47:05.245Z,10.75
2017-03-30T05:47:45.738Z,10.79
2017-03-30T05:48:26.216Z,10.74
2017-03-30T05:49:06.733Z,10.82
2017-03-30T05:49:47.192Z,10.74
2017-03-30T05:50:27.669Z,10.72
2017-03-30T05:51:08.123Z,10.76
2017-03-30T05:51:48.585Z,10.72
2017-03-30T05:52:29.831Z,10.76
2017-03-30T05:53:10.324Z,10.71
2017-03-30T05:53:50.825Z,10.76
2017-03-30T05:54:31.304Z,10.81
2017-03-30T05:55:11.888Z,10.74
2017-03-30T05:55:52.369Z,10.76
2017-03-30T05:56:32.843Z,10.74
2017-03-30T05:57:13.375Z,10.75
2017-03-30T05:57:53.858Z,10.75
2017-03-30T05:58:34.345Z,10.75
2017-03-30T05:59:14.840Z,10.69
2017-03-30T05:59:55.365Z,10.75
2017-03-30T06:00:35.803Z,10.76
2017-03-30T06:01:16.293Z,10.67
2017-03-30T06:01:56.814Z,10.63
2017-03-30T06:04:11.355Z,10.71
2017-03-30T06:04:51.505Z,10.64
2017-03-30T06:05:31.988Z,10.6
2017-03-30T06:06:12.520Z,10.57
2017-03-30T06:06:53.022Z,10.64
2017-03-30T06:07:33.486Z,10.63
2017-03-30T06:08:13.952Z,10.63
2017-03-30T06:08:54.417Z,10.57
2017-03-30T06:09:34.976Z,10.53
2017-03-30T06:10:15.417Z,10.57
2017-03-30T06:10:55.874Z,10.59
2017-03-30T06:11:36.369Z,10.57
2017-03-30T06:12:16.847Z,10.49
2017-03-30T06:12:57.415Z,10.54
2017-03-30T06:13:37.865Z,10.51
2017-03-30T06:14:19.211Z,10.49
2017-03-30T06:15:00.272Z,10.41
2017-03-30T06:15:42.329Z,10.42
2017-03-30T06:16:22.844Z,10.41
2017-03-30T06:17:03.323Z,10.38
2017-03-30T06:17:43.836Z,10.38
2017-03-30T06:18:24.297Z,10.48
2017-03-30T06:19:04.790Z,10.4
2017-03-30T06:19:45.296Z,10.53
2017-03-30T06:20:25.729Z,10.48
2017-03-30T06:21:06.226Z,10.46
2017-03-30T06:21:46.749Z,10.49
2017-03-30T06:22:27.228Z,10.46
2017-03-30T06:23:07.702Z,10.49
2017-03-30T06:23:48.182Z,10.51
2017-03-30T06:24:28.697Z,10.48
2017-03-30T06:25:09.185Z,10.44
2017-03-30T06:25:49.752Z,10.46
2017-03-30T06:26:30.209Z,10.44
2017-03-30T06:27:10.694Z,10.44
2017-03-30T06:27:51.140Z,10.48
2017-03-30T06:28:31.663Z,10.44
2017-03-30T06:29:12.149Z,10.48
2017-03-30T06:29:52.659Z,10.46
2017-03-30T06:30:33.900Z,10.42
2017-03-30T06:31:14.444Z,10.46
2017-03-30T06:31:54.910Z,10.49
2017-03-30T06:32:35.419Z,10.46
2017-03-30T06:33:15.878Z,10.51
2017-03-30T06:33:56.357Z,10.49
2017-03-30T06:34:36.856Z,10.44
2017-03-30T06:35:17.327Z,10.51
2017-03-30T06:35:57.803Z,10.44
2017-03-30T06:36:38.317Z,10.54
2017-03-30T06:37:18.759Z,10.51
2017-03-30T06:37:59.264Z,10.53
2017-03-30T06:38:39.761Z,10.53
2017-03-30T06:39:20.286Z,10.51
2017-03-30T06:40:00.808Z,10.54
2017-03-30T06:40:41.274Z,10.49
2017-03-30T06:41:21.765Z,10.57
2017-03-30T06:42:02.236Z,10.48
2017-03-30T06:42:42.749Z,10.51
2017-03-30T06:43:23.223Z,10.54
2017-03-30T06:44:03.715Z,10.53
2017-03-30T06:44:44.245Z,10.49
2017-03-30T06:45:24.711Z,10.63
2017-03-30T06:46:05.234Z,10.61
2017-03-30T06:46:45.754Z,10.49
2017-03-30T06:47:26.244Z,10.56
2017-03-30T06:48:14.601Z,10.61
2017-03-30T06:48:55.088Z,10.67
2017-03-30T06:49:35.555Z,10.69
2017-03-30T06:50:16.039Z,10.68
2017-03-30T06:50:56.551Z,10.6
2017-03-30T06:51:37.031Z,10.68
2017-03-30T06:52:17.546Z,10.63
2017-03-30T06:52:58.028Z,10.61
2017-03-30T06:53:38.495Z,10.75
2017-03-30T06:54:19.010Z,10.72
2017-03-30T06:55:00.703Z,10.69
2017-03-30T06:55:41.170Z,10.81
2017-03-30T06:56:21.702Z,10.79
2017-03-30T06:57:02.168Z,10.84
2017-03-30T06:57:42.663Z,10.86
2017-03-30T06:58:23.185Z,10.84
2017-03-30T06:59:03.695Z,10.81
2017-03-30T06:59:44.187Z,10.86
2017-03-30T07:00:25.674Z,10.93
2017-03-30T07:01:06.165Z,10.9
2017-03-30T07:01:46.677Z,10.89
2017-03-30T07:02:27.128Z,10.89
2017-03-30T07:03:07.610Z,10.87
2017-03-30T07:03:48.155Z,10.87
2017-03-30T07:04:28.617Z,10.9
2017-03-30T07:05:09.197Z,10.94
2017-03-30T07:05:52.210Z,10.99
2017-03-30T07:06:32.434Z,10.87
2017-03-30T07:07:13.150Z,10.96
2017-03-30T07:07:53.584Z,10.96
2017-03-30T07:08:34.384Z,10.97
2017-03-30T07:09:17.456Z,11.04
2017-03-30T07:09:58.669Z,11.11
2017-03-30T07:10:39.492Z,11.1
2017-03-30T07:11:23.475Z,11.11
2017-03-30T07:12:09.580Z,11.15
2017-03-30T07:12:51.988Z,11.14
2017-03-30T07:13:35.851Z,11.1
2017-03-30T07:14:17.919Z,11.23
2017-03-30T07:14:58.478Z,11.18
2017-03-30T07:15:39.908Z,11.22
2017-03-30T07:16:20.383Z,11.18
2017-03-30T07:17:01.792Z,11.23
2017-03-30T07:17:42.323Z,11.22
2017-03-30T07:18:23.011Z,11.27
2017-03-30T07:19:03.522Z,11.22
2017-03-30T07:19:43.989Z,11.25
2017-03-30T07:20:25.158Z,11.22
2017-03-30T07:21:08.140Z,11.19
2017-03-30T07:21:48.984Z,11.19
2017-03-30T07:22:29.518Z,11.26
2017-03-30T07:23:10.077Z,11.23
2017-03-30T07:23:50.600Z,11.26
2017-03-30T07:24:31.082Z,11.33
2017-03-30T07:25:11.577Z,11.4
2017-03-30T07:25:52.063Z,11.29
2017-03-30T07:26:32.689Z,11.35
2017-03-30T07:27:15.013Z,11.41
2017-03-30T07:27:55.133Z,11.4
2017-03-30T07:28:35.603Z,11.41
2017-03-30T07:29:16.135Z,11.54
2017-03-30T07:29:56.616Z,11.47
2017-03-30T07:30:37.178Z,11.47
2017-03-30T07:31:17.823Z,11.5
2017-03-30T07:31:58.327Z,11.51
2017-03-30T07:32:38.807Z,11.52
2017-03-30T07:33:19.727Z,11.52
2017-03-30T07:34:00.234Z,11.6
2017-03-30T07:34:40.718Z,11.7
2017-03-30T07:36:34.546Z,11.68
2017-03-30T07:37:15.062Z,11.7
2017-03-30T07:37:55.552Z,11.65
2017-03-30T07:38:36.085Z,11.68
2017-03-30T07:39:17.017Z,11.66
2017-03-30T07:39:58.573Z,11.75
2017-03-30T07:40:39.070Z,11.78
2017-03-30T07:41:19.528Z,11.73
2017-03-30T07:42:00.075Z,11.73
2017-03-30T07:42:40.570Z,11.75
2017-03-30T07:43:21.032Z,11.75
2017-03-30T07:44:01.676Z,11.68
2017-03-30T07:44:42.196Z,11.72
2017-03-30T07:45:22.974Z,11.7
2017-03-30T07:46:03.476Z,11.77
2017-03-30T07:46:44.478Z,11.81
2017-03-30T07:47:24.964Z,11.73
2017-03-30T07:48:05.428Z,11.84
2017-03-30T07:48:46.078Z,11.91
2017-03-30T07:49:26.498Z,11.73
2017-03-30T07:50:06.987Z,11.77
2017-03-30T07:50:47.478Z,11.83
2017-03-30T07:51:27.957Z,11.81
2017-03-30T07:52:08.527Z,11.77
2017-03-30T07:52:49.012Z,11.84
2017-03-30T07:53:30.248Z,11.86
2017-03-30T07:54:10.702Z,11.81
2017-03-30T07:54:51.185Z,11.94
2017-03-30T07:55:31.663Z,11.88
2017-03-30T07:56:12.143Z,11.9
2017-03-30T07:56:52.692Z,12
2017-03-30T07:57:33.165Z,11.95
2017-03-30T07:58:13.672Z,11.95
2017-03-30T07:58:54.137Z,11.91
2017-03-30T07:59:34.617Z,11.95
2017-03-30T08:00:15.107Z,12
2017-03-30T08:00:55.604Z,12.02
2017-03-30T08:01:36.093Z,12.03
2017-03-30T08:02:16.590Z,12.07
2017-03-30T08:02:57.062Z,12.13
2017-03-30T08:03:37.573Z,12.12
2017-03-30T08:04:18.065Z,12.06
2017-03-30T08:04:58.501Z,12.12
2017-03-30T08:05:38.986Z,12.18
2017-03-30T08:06:19.483Z,12.06
2017-03-30T08:07:00.052Z,12.12
2017-03-30T08:07:40.515Z,12.13
2017-03-30T08:08:21.068Z,12.21
2017-03-30T08:09:01.576Z,12.21
2017-03-30T08:09:42.037Z,12.15
2017-03-30T08:10:22.520Z,12.21
2017-03-30T08:11:03.030Z,12.21
2017-03-30T08:11:43.499Z,12.22
2017-03-30T08:12:24.167Z,12.22
2017-03-30T08:13:04.697Z,12.37
2017-03-30T08:13:45.251Z,12.28
2017-03-30T08:14:25.751Z,12.35
2017-03-30T08:15:06.266Z,12.42
2017-03-30T08:15:46.766Z,12.46
2017-03-30T08:16:27.273Z,12.39
2017-03-30T08:17:07.728Z,12.53
2017-03-30T08:17:48.217Z,12.45
2017-03-30T08:18:28.880Z,12.45
2017-03-30T08:19:09.338Z,12.54
2017-03-30T08:19:49.880Z,12.45
2017-03-30T08:20:30.939Z,12.5
2017-03-30T08:21:11.452Z,12.62
2017-03-30T08:21:51.933Z,12.65
2017-03-30T08:24:05.986Z,12.82
2017-03-30T08:24:46.176Z,12.83
2017-03-30T08:25:26.781Z,12.82
2017-03-30T08:26:07.273Z,12.91
2017-03-30T08:26:47.760Z,12.9
2017-03-30T08:27:28.229Z,12.86
2017-03-30T08:28:08.786Z,12.95
2017-03-30T08:28:49.283Z,12.98
2017-03-30T08:29:29.815Z,12.95
2017-03-30T08:30:10.354Z,12.94
2017-03-30T08:30:50.928Z,12.95
2017-03-30T08:31:31.399Z,13.03
2017-03-30T08:32:11.848Z,12.95
2017-03-30T08:32:52.400Z,12.95
2017-03-30T08:33:32.810Z,13
2017-03-30T08:34:13.273Z,13
2017-03-30T08:34:53.790Z,13.08
2017-03-30T08:35:34.303Z,13
2017-03-30T08:36:14.859Z,12.97
2017-03-30T08:36:55.293Z,13.03
2017-03-30T08:37:35.828Z,13.08
2017-03-30T08:38:16.274Z,13.03
2017-03-30T08:38:56.787Z,12.94
2017-03-30T08:39:37.270Z,13.11
2017-03-30T08:40:17.781Z,13.09
2017-03-30T08:40:58.430Z,13.08
2017-03-30T08:41:38.877Z,13.11
2017-03-30T08:42:19.358Z,13.09
2017-03-30T08:42:59.851Z,13.11
2017-03-30T08:43:40.327Z,13.12
2017-03-30T08:44:20.913Z,13.12
2017-03-30T08:45:01.517Z,13.15
2017-03-30T08:45:42.011Z,13.23
2017-03-30T08:46:22.510Z,13.23
2017-03-30T08:47:02.977Z,13.13
2017-03-30T08:47:43.468Z,13.2
2017-03-30T08:48:23.946Z,13.18
2017-03-30T08:49:04.448Z,13.13
2017-03-30T08:49:44.962Z,13.11
2017-03-30T08:50:25.469Z,13.15
2017-03-30T08:51:05.943Z,13.25
2017-03-30T08:51:46.438Z,13.18
2017-03-30T08:52:26.943Z,13.42
2017-03-30T08:53:07.403Z,13.25
2017-03-30T08:53:47.997Z,13.33
2017-03-30T08:54:28.511Z,13.42
2017-03-30T08:55:09.034Z,13.35
2017-03-30T08:55:49.509Z,13.41
2017-03-30T08:56:30.054Z,13.44
2017-03-30T08:57:10.525Z,13.41
2017-03-30T08:57:51.244Z,13.42
2017-03-30T08:58:31.716Z,13.5
2017-03-30T08:59:12.278Z,13.46
2017-03-30T08:59:52.742Z,13.5
2017-03-30T09:00:33.244Z,13.53
2017-03-30T09:01:13.718Z,13.52
2017-03-30T09:01:54.263Z,13.59
2017-03-30T09:02:34.827Z,13.68